Yorkville, New York
Current Conditions -  °F | °C
As of 2:41 PM on Thursday 27 Nov 2014 (Local Time) from KRME Reporting Station
Light Snow Light Snow  
Wind Chill: 29°   Ceiling: 700
Heat Index: 29°   Visibility: 0.75mi
Dew Point: 27°   Wind: 3mph
Humidity: 92%   Direction: 260°W
Pressure: 30.03"   Gusts: NA
Location:  43.11°N, 75.27°W
Report Text: KRME 271941Z 26003KT 3/4SM -SN BR BKN007 BKN015 OVC033 M02/M03 A3003 RMK AO2 P0002 T10171028 RVRNO
Loading
Personal Weather Stations






























Interactive Weather Map New forecast layout! Learn more

10-Day Weather Forecast

Advertisements
Track Severe Weather on mobile